FW6829 Weather Reports


Display with metric or nautical units.
time (UTC)temp
F
wind
direction
speed
MPH
gust
MPH
rain 1hr
in
rain 24hr
in
rain mn
in
humidity
%
barometer
mb
20200804193417 50 194 0.0 13.0 0.00 0.00 0.00 78 722.5
20200804192917 50 194 0.0 13.0 0.00 0.00 0.00 78 721.9
20200804192421 50 194 0.0 13.0 0.00 0.00 0.00 77 721.2
20200804191917 50 194 0.0 13.0 0.00 0.00 0.00 77 721.2
20200804191418 50 194 0.0 13.0 0.00 0.00 0.00 77 721.7
20200804190917 50 194 0.0 13.0 0.00 0.00 0.00 77 721.8
20200804190417 51 194 0.0 13.0 0.00 0.00 0.00 77 721.8
20200804185917 51 194 0.0 13.0 0.00 0.00 0.00 76 721.9
20200804185418 51 194 0.0 13.0 0.00 0.00 0.00 76 721.6
20200804184917 51 194 0.0 13.0 0.00 0.00 0.00 76 720.8
20200804184417 51 194 0.0 13.0 0.00 0.00 0.00 77 719.9
20200804183917 51 194 1.0 13.0 0.00 0.00 0.00 77 719.6
20200804183417 51 194 1.0 13.0 0.00 0.00 0.00 77 719.4
20200804182917 52 194 0.0 13.0 0.00 0.00 0.00 76 719.3
20200804182417 52 194 0.0 13.0 0.00 0.00 0.00 76 719.1
20200804181918 52 194 1.0 13.0 0.00 0.00 0.00 75 718.6
20200804181417 53 194 1.0 13.0 0.00 0.00 0.00 74 718.1
20200804180917 53 194 0.0 13.0 0.00 0.00 0.00 74 716.8
20200804180417 53 194 1.0 13.0 0.00 0.00 0.00 72 714.1
20200804175917 53 193 0.0 13.0 0.00 0.00 0.00 73 711.3
20200804175417 53 193 1.0 13.0 0.00 0.00 0.00 75 707.0
20200804174919 53 191 0.0 13.0 0.00 0.00 0.00 74 703.0
20200804174418 54 191 1.0 13.0 0.00 0.00 0.00 72 699.8
20200804173917 54 191 1.0 13.0 0.00 0.00 0.00 72 695.9
20200804173417 54 187 1.0 13.0 0.00 0.00 0.00 73 694.9
20200804172917 55 187 1.0 13.0 0.00 0.00 0.00 72 697.6
20200804172417 55 188 1.0 13.0 0.00 0.00 0.00 71 702.9
20200804171917 56 190 1.0 13.0 0.00 0.00 0.00 73 713.0
20200804171420 56 198 0.0 13.0 0.00 0.00 0.00 73 721.2
20200804170918 57 192 1.0 13.0 0.00 0.00 0.00 67 722.6
20200804170417 57 197 0.0 13.0 0.00 0.00 0.00 71 739.7
20200804165916 58 250 2.0 13.0 0.00 0.00 0.00 66 719.7
20200804165415 58 190 2.0 13.0 0.00 0.00 0.00 65 581.1
20200804164915 57 156 2.0 13.0 0.00 0.00 0.00 66 541.1
20200804164416 57 103 2.0 13.0 0.00 0.00 0.00 61 498.9
20200804163915 57 140 1.0 13.0 0.00 0.00 0.00 63 510.9
20200804163415 57 104 1.0 13.0 0.00 0.00 0.00 61 480.8
20200804162916 57 100 2.0 13.0 0.00 0.00 0.00 60 502.6
20200804162415 58 109 2.0 13.0 0.00 0.00 0.00 58 548.0
20200804161916 58 146 1.0 13.0 0.00 0.00 0.00 57 603.2
20200804161416 59 165 1.0 13.0 0.00 0.00 0.00 55 632.0
20200804160915 60 185 1.0 13.0 0.00 0.00 0.00 53 639.5
20200804160416 61 162 3.0 13.0 0.00 0.00 0.00 50 593.0
20200804155916 63 170 4.0 13.0 0.00 0.00 0.00 48 585.5
20200804155415 63 157 3.0 13.0 0.00 0.00 0.00 47 559.6
20200804154915 62 153 1.0 13.0 0.00 0.00 0.00 50 570.4
20200804154420 61 140 1.0 13.0 0.00 0.00 0.00 52 531.1
20200804153915 61 124 2.0 13.0 0.00 0.00 0.00 52 548.5
20200804153415 60 123 3.0 13.0 0.00 0.00 0.00 52 548.2
20200804152915 60 157 3.0 13.0 0.00 0.00 0.00 49 608.0
20200804152414 61 175 4.0 13.0 0.00 0.00 0.00 49 591.5
20200804151914 62 124 2.0 13.0 0.00 0.00 0.00 48 534.4
20200804151416 62 123 3.0 13.0 0.00 0.00 0.00 47 532.1
20200804150914 63 118 3.0 13.0 0.00 0.00 0.00 47 553.6
20200804150416 62 144 3.0 13.0 0.00 0.00 0.00 47 583.2
20200804145914 61 173 3.0 13.0 0.00 0.00 0.00 49 592.4
20200804145414 60 155 4.0 13.0 0.00 0.00 0.00 51 585.5
20200804144914 60 139 2.0 13.0 0.00 0.00 0.00 52 560.6
20200804144414 59 161 1.0 13.0 0.00 0.00 0.00 52 567.6
20200804143914 59 153 3.0 13.0 0.00 0.00 0.00 50 579.3
20200804143414 60 136 2.0 13.0 0.00 0.00 0.00 52 592.8
20200804142914 60 125 1.0 13.0 0.00 0.00 0.00 51 641.4
20200804142415 60 162 2.0 13.0 0.00 0.00 0.00 51 694.1
20200804141915 61 211 5.0 13.0 0.00 0.00 0.00 47 740.5
20200804141416 62 330 2.0 13.0 0.00 0.00 0.00 48 712.1
20200804140914 62 48 2.0 13.0 0.00 0.00 0.00 46 543.1
20200804140414 63 14 3.0 13.0 0.00 0.00 0.00 43 634.1
20200804135914 63 37 2.0 13.0 0.00 0.00 0.00 45 598.4
20200804135414 62 110 3.0 13.0 0.00 0.00 0.00 43 622.9
20200804134914 62 331 2.0 13.0 0.00 0.00 0.00 44 750.8
20200804134414 62 201 2.0 13.0 0.00 0.00 0.00 42 645.6
20200804133916 60 272 1.0 13.0 0.00 0.00 0.00 46 747.9
20200804133415 59 52 3.0 13.0 0.00 0.00 0.00 47 712.3
20200804132914 58 323 5.0 13.0 0.00 0.00 0.00 50 1019.8
20200804132414 58 357 2.0 13.0 0.00 0.00 0.00 55 1017.2
20200804131914 58 359 4.0 13.0 0.00 0.00 0.00 53 979.6
20200804131415 58 330 4.0 13.0 0.00 0.00 0.00 53 997.5
20200804130914 58 351 4.0 13.0 0.00 0.00 0.00 52 1010.8
20200804130414 58 338 5.0 13.0 0.00 0.00 0.00 51 1021.6
20200804125914 59 325 3.0 13.0 0.00 0.00 0.00 51 995.5
20200804125415 60 292 5.0 13.0 0.00 0.00 0.00 48 945.5
20200804124914 60 310 7.0 13.0 0.00 0.00 0.00 47 903.3
20200804124415 62 272 5.0 12.0 0.00 0.00 0.00 46 753.4
20200804123915 61 154 2.0 12.0 0.00 0.00 0.00 47 853.0
20200804123414 60 355 3.0 12.0 0.00 0.00 0.00 48 888.1
20200804122914 59 323 4.0 12.0 0.00 0.00 0.00 49 876.1
20200804122414 59 267 5.0 12.0 0.00 0.00 0.00 48 969.8
20200804121915 59 335 6.0 12.0 0.00 0.00 0.00 48 989.7
20200804121414 59 349 4.0 12.0 0.00 0.00 0.00 50 975.5
20200804120914 59 300 2.0 11.0 0.00 0.00 0.00 50 1014.0
20200804120414 59 352 6.0 11.0 0.00 0.00 0.00 50 1000.1
20200804115914 59 335 2.0 11.0 0.00 0.00 0.00 52 1022.1
20200804115414 59 337 7.0 11.0 0.00 0.00 0.00 49 1000.0
20200804114915 59 8 4.0 11.0 0.00 0.00 0.00 53 893.7
20200804114414 57 303 3.0 11.0 0.00 0.00 0.00 55 989.6
20200804113914 57 289 2.0 11.0 0.00 0.00 0.00 55 1042.1
20200804113414 57 348 4.0 11.0 0.00 0.00 0.00 54 1060.5
20200804112916 58 332 5.0 11.0 0.00 0.00 0.00 52 1048.4
20200804112414 58 306 4.0 11.0 0.00 0.00 0.00 52 999.9
20200804111914 58 332 4.0 11.0 0.00 0.00 0.00 54 950.2
20200804111414 59 206 1.0 11.0 0.00 0.00 0.00 53 844.4
20200804110914 58 76 2.0 11.0 0.00 0.00 0.00 53 853.4
20200804110414 58 329 3.0 11.0 0.00 0.00 0.00 52 1058.6
20200804105914 57 328 3.0 14.0 0.00 0.00 0.00 53 1007.4
20200804105414 57 347 3.0 14.0 0.00 0.00 0.00 57 942.6
20200804104914 56 2 3.0 14.0 0.00 0.00 0.00 56 961.2
20200804104414 56 301 5.0 14.0 0.00 0.00 0.00 54 1018.2
20200804103914 57 312 5.0 12.0 0.00 0.00 0.00 53 987.9
20200804103414 57 271 4.0 15.0 0.00 0.00 0.00 54 958.0
20200804102914 57 295 5.0 15.0 0.00 0.00 0.00 53 955.6
20200804102414 57 350 6.0 15.0 0.00 0.00 0.00 55 896.5
20200804101914 57 327 5.0 11.0 0.00 0.00 0.00 55 828.1
20200804101415 57 33 4.0 11.0 0.00 0.00 0.00 56 707.9
20200804100914 56 4 1.0 13.0 0.00 0.00 0.00 60 844.1
20200804100414 55 2 7.0 13.0 0.00 0.00 0.00 57 795.4
20200804095914 56 14 4.0 11.0 0.00 0.00 0.00 60 723.5
20200804095414 56 295 4.0 11.0 0.00 0.00 0.00 59 848.8
20200804094915 56 6 4.0 11.0 0.00 0.00 0.00 59 870.8
20200804094414 56 341 5.0 11.0 0.00 0.00 0.00 60 849.9
20200804093915 56 60 0.0 11.0 0.00 0.00 0.00 62 657.7
20200804093414 56 32 2.0 11.0 0.00 0.00 0.00 60 670.2
20200804092914 55 125 1.0 13.0 0.00 0.00 0.00 65 883.2
20200804092415 55 326 8.0 13.0 0.00 0.00 0.00 62 1055.9
20200804091914 55 298 1.0 13.0 0.00 0.00 0.00 62 998.9
20200804091414 55 356 5.0 13.0 0.00 0.00 0.00 61 929.9
20200804090914 55 0 2.0 13.0 0.00 0.00 0.00 63 897.4
20200804090414 54 327 3.0 13.0 0.00 0.00 0.00 65 1058.2
20200804085914 54 356 4.0 13.0 0.00 0.00 0.00 63 1013.2
20200804085414 54 323 7.0 13.0 0.00 0.00 0.00 62 1033.5
20200804084914 54 290 4.0 11.0 0.00 0.00 0.00 64 1006.7
20200804084414 54 322 5.0 11.0 0.00 0.00 0.00 62 1023.6
20200804083914 53 297 3.0 11.0 0.00 0.00 0.00 64 1011.4
20200804083414 53 283 4.0 11.0 0.00 0.00 0.00 65 979.1
20200804082915 54 285 5.0 11.0 0.00 0.00 0.00 64 951.0
20200804082414 54 253 3.0 11.0 0.00 0.00 0.00 64 902.7
20200804081914 53 340 2.0 11.0 0.00 0.00 0.00 64 904.3
20200804081414 53 7 5.0 11.0 0.00 0.00 0.00 66 715.3
20200804080916 53 6 3.0 11.0 0.00 0.00 0.00 68 890.5
20200804080415 52 313 4.0 11.0 0.00 0.00 0.00 67 1050.0
20200804075914 53 340 3.0 11.0 0.00 0.00 0.00 72 1003.0
20200804075414 52 348 3.0 11.0 0.00 0.00 0.00 69 932.3
20200804074915 52 287 4.0 11.0 0.00 0.00 0.00 70 1004.6
20200804074415 52 306 5.0 11.0 0.00 0.00 0.00 72 1022.6
20200804073915 51 314 3.0 11.0 0.00 0.00 0.00 71 1013.6
20200804073414 51 351 4.0 11.0 0.00 0.00 0.00 72 1028.5
20200804072915 51 318 4.0 11.0 0.00 0.00 0.00 70 1059.3
20200804072414 51 324 5.0 11.0 0.00 0.00 0.00 73 1062.1
20200804071915 51 272 3.0 11.0 0.00 0.00 0.00 72 1014.9
20200804071414 51 336 4.0 12.0 0.00 0.00 0.00 72 1022.5
20200804070914 51 296 2.0 12.0 0.00 0.00 0.00 73 966.4
20200804070414 51 328 3.0 12.0 0.00 0.00 0.00 75 918.1
20200804065915 51 348 3.0 12.0 0.00 0.00 0.00 77 886.7
20200804065416 50 335 4.0 12.0 0.00 0.00 0.00 78 802.7
20200804064915 50 13 4.0 12.0 0.00 0.00 0.00 80 600.2
20200804064415 49 356 4.0 12.0 0.00 0.00 0.00 80 785.8
20200804063914 49 1 3.0 12.0 0.00 0.00 0.00 80 734.8
20200804063416 49 7 5.0 12.0 0.00 0.00 0.00 81 859.6
20200804062914 49 359 4.0 12.0 0.00 0.00 0.00 83 1000.6
20200804062415 49 342 4.0 12.0 0.00 0.00 0.00 82 1046.5
20200804061917 48 342 4.0 12.0 0.00 0.00 0.00 83 1035.7
20200804061415 48 347 4.0 12.0 0.00 0.00 0.00 83 1003.1
20200804060917 48 346 5.0 12.0 0.00 0.00 0.00 84 943.2
20200804060415 47 314 4.0 12.0 0.00 0.00 0.00 86 1028.2
20200804055914 47 308 3.0 12.0 0.00 0.00 0.00 85 1075.8
20200804055416 47 344 3.0 12.0 0.00 0.00 0.00 85 1061.5
20200804054916 47 333 5.0 12.0 0.00 0.00 0.00 85 1080.3
20200804054416 47 334 4.0 12.0 0.00 0.00 0.00 84 1032.8
20200804053914 47 336 3.0 12.0 0.00 0.00 0.00 85 1062.5
20200804053414 47 333 3.0 12.0 0.00 0.00 0.00 85 1076.9
20200804052914 46 335 3.0 12.0 0.00 0.00 0.00 86 1136.9
20200804052414 46 331 3.0 12.0 0.00 0.00 0.00 87 1157.2
20200804051914 46 339 2.0 12.0 0.00 0.00 0.00 88 1164.0
20200804051413 46 344 2.0 12.0 0.00 0.00 0.00 87 1153.1
20200804050913 45 325 3.0 12.0 0.00 0.00 0.00 89 1138.8
20200804050413 43 316 3.0 12.0 0.00 0.00 0.00 92 1151.9
20200804045914 42 329 2.0 12.0 0.00 0.00 0.00 95 1189.4
20200804045412 41 358 3.0 12.0 0.00 0.00 0.00 95 1205.6
20200804044912 40 0 3.0 12.0 0.00 0.00 0.00 95 1186.0
20200804044412 40 356 1.0 12.0 0.00 0.00 0.00 93 1157.1
20200804043912 41 347 2.0 12.0 0.00 0.00 0.00 92 1104.4
20200804043412 41 308 2.0 12.0 0.00 0.00 0.00 96 1072.1
20200804042912 40 307 1.0 12.0 0.00 0.00 0.00 96 1072.8
20200804042412 39 307 1.0 12.0 0.00 0.00 0.00 96 1074.3
20200804041912 39 307 1.0 12.0 0.00 0.00 0.00 91 1076.9
20200804041412 39 307 0.0 12.0 0.00 0.00 0.00 93 1079.1
20200804040912 39 308 0.0 12.0 0.00 0.00 0.00 95 1077.9
20200804040412 39 308 0.0 12.0 0.00 0.00 0.00 96 1075.2
20200804035912 39 308 1.0 12.0 0.00 0.00 0.00 99 1074.0
20200804035412 38 308 1.0 12.0 0.00 0.00 0.00 97 1073.4
20200804034912 38 308 1.0 12.0 0.00 0.00 0.00 97 1073.8
20200804034412 38 308 0.0 12.0 0.00 0.00 0.00 96 1074.0
20200804033912 38 308 0.0 12.0 0.00 0.00 0.00 96 1073.5
20200804033412 39 308 1.0 12.0 0.00 0.00 0.00 98 1073.2
20200804032912 38 308 0.0 12.0 0.00 0.00 0.00 97 1073.4
20200804032413 38 308 0.0 12.0 0.00 0.00 0.00 94 1074.9
20200804031912 38 308 0.0 12.0 0.00 0.00 0.00 95 1075.3
20200804031412 39 308 0.0 12.0 0.00 0.00 0.00 97 1076.1
20200804030912 39 308 0.0 12.0 0.00 0.00 0.00 97 1075.6
20200804030412 38 308 1.0 12.0 0.00 0.00 0.00 96 1076.7
20200804025912 38 308 0.0 12.0 0.00 0.00 0.00 96 1078.0
20200804025412 39 308 0.0 12.0 0.00 0.00 0.00 96 1079.4
20200804024909 39 308 0.0 12.0 0.00 0.00 0.00 96 1081.6
20200804024409 39 308 1.0 12.0 0.00 0.00 0.00 96 1088.2
20200804023911 39 325 1.0 12.0 0.00 0.00 0.00 97 1116.5
20200804023439 39 316 0.0 12.0 0.00 0.00 0.00 96 1119.4
20200804022909 39 316 1.0 12.0 0.00 0.00 0.00 96 1139.5
20200804022409 39 338 1.0 12.0 0.00 0.00 0.00 96 1178.1
20200804021909 39 339 1.0 12.0 0.00 0.00 0.00 95 1194.4
20200804021410 40 0 0.0 12.0 0.00 0.00 0.00 94 1198.1
20200804020909 40 0 1.0 12.0 0.00 0.00 0.00 94 1168.7
20200804020409 41 318 1.0 12.0 0.00 0.00 0.00 95 1127.0
20200804015909 41 320 2.0 12.0 0.00 0.00 0.00 97 1152.8
20200804015409 40 325 1.0 12.0 0.00 0.00 0.00 97 1182.7
20200804014911 39 349 0.0 12.0 0.00 0.00 0.00 96 1208.0
20200804014409 40 359 0.0 12.0 0.00 0.00 0.00 96 1220.5
20200804013909 40 0 1.0 12.0 0.00 0.00 0.00 96 1215.7
20200804013409 40 0 1.0 12.0 0.00 0.00 0.00 96 1206.9
20200804012910 40 356 1.0 12.0 0.00 0.00 0.00 96 1188.4
20200804012409 40 359 1.0 12.0 0.00 0.00 0.00 97 1159.6
20200804011910 40 343 1.0 12.0 0.00 0.00 0.00 96 1106.5
20200804011409 40 343 1.0 12.0 0.00 0.00 0.00 96 1039.0
20200804010909 40 343 1.0 12.0 0.00 0.00 0.00 95 903.3
20200804010409 40 24 1.0 12.0 0.00 0.00 0.00 95 744.3
20200804005910 40 335 1.0 12.0 0.00 0.00 0.00 95 1128.1
20200804005409 40 327 1.0 12.0 0.00 0.00 0.00 95 1112.6
20200804004910 40 329 0.0 12.0 0.00 0.00 0.00 95 1095.3
20200804004412 40 333 1.0 12.0 0.00 0.00 0.00 95 1059.6
20200804003909 41 12 0.0 12.0 0.00 0.00 0.00 94 924.0
20200804003409 41 355 2.0 12.0 0.00 0.00 0.00 94 1154.8
20200804002909 41 341 1.0 12.0 0.00 0.00 0.00 94 1114.4
20200804002409 42 333 2.0 12.0 0.00 0.00 0.00 92 1054.5
20200804001909 43 308 1.0 12.0 0.00 0.00 0.00 92 1103.6
20200804001409 43 324 1.0 12.0 0.00 0.00 0.00 91 1127.0
20200804000911 43 306 1.0 12.0 0.00 0.00 0.00 93 1144.5
20200804000411 43 353 1.0 12.0 0.00 0.00 0.00 92 1196.9
20200803235910 43 353 1.0 12.0 0.00 0.00 0.00 91 1191.2
20200803235409 43 353 0.0 12.0 0.00 0.00 0.00 91 1179.3
20200803234912 44 353 0.0 12.0 0.00 0.00 0.00 91 1155.2
20200803234409 44 354 1.0 12.0 0.00 0.00 0.00 90 1104.7
20200803233909 44 316 1.0 12.0 0.00 0.00 0.00 90 1032.0
20200803233411 44 285 0.0 12.0 0.00 0.00 0.00 89 1009.0
20200803232909 45 285 0.0 12.0 0.00 0.00 0.00 89 1013.0
20200803232409 45 285 0.0 12.0 0.00 0.00 0.00 89 1019.1
20200803231909 45 285 2.0 12.0 0.00 0.00 0.00 89 1031.3
20200803231413 44 282 2.0 12.0 0.00 0.00 0.00 90 1058.0
20200803230909 44 317 1.0 12.0 0.00 0.00 0.00 90 1079.2
20200803230409 44 293 1.0 12.0 0.00 0.00 0.00 91 1053.8
20200803225911 44 303 2.0 12.0 0.00 0.00 0.00 91 1073.7
20200803225409 43 311 2.0 12.0 0.00 0.00 0.00 91 1121.8
20200803224909 43 329 1.0 12.0 0.00 0.00 0.00 90 1140.5
20200803224410 43 341 2.0 12.0 0.00 0.00 0.00 90 1148.6
20200803223910 44 336 1.0 12.0 0.00 0.00 0.00 89 1129.5
20200803223412 44 323 2.0 12.0 0.00 0.00 0.00 89 1102.5
20200803222909 44 319 2.0 12.0 0.00 0.00 0.00 89 1093.7
20200803222410 44 315 1.0 12.0 0.00 0.00 0.00 88 1087.5
20200803221909 45 322 2.0 12.0 0.00 0.00 0.00 88 1083.2
20200803221413 45 311 2.0 12.0 0.00 0.00 0.00 88 1077.2
20200803220909 44 305 3.0 12.0 0.00 0.00 0.00 89 1068.7
20200803220410 44 307 2.0 12.0 0.00 0.00 0.00 89 1082.9
20200803215911 44 315 1.0 12.0 0.00 0.00 0.00 89 1091.5
20200803215413 44 310 2.0 12.0 0.00 0.00 0.00 90 1094.7
20200803214911 44 327 2.0 12.0 0.00 0.00 0.00 90 1101.3
20200803214410 44 313 2.0 12.0 0.00 0.00 0.00 90 1088.2
20200803213909 44 332 2.0 12.0 0.00 0.00 0.00 89 1082.4
20200803213409 44 343 2.0 12.0 0.00 0.00 0.00 89 1030.2
20200803212909 44 357 3.0 12.0 0.00 0.00 0.00 88 882.8
20200803212413 44 351 3.0 12.0 0.00 0.00 0.00 88 816.0
20200803211911 44 352 1.0 12.0 0.00 0.00 0.00 88 656.7
20200803211411 45 9 1.0 12.0 0.00 0.00 0.00 88 511.5
20200803210911 45 20 3.0 12.0 0.00 0.00 0.00 87 697.0
20200803210409 45 347 4.0 12.0 0.00 0.00 0.00 85 1026.7
20200803205910 46 334 5.0 12.0 0.00 0.00 0.00 85 1102.5
20200803205411 45 323 3.0 12.0 0.00 0.00 0.00 85 1074.1
20200803204908 45 336 4.0 12.0 0.00 0.00 0.00 86 1083.5
20200803204408 45 342 3.0 12.0 0.00 0.00 0.00 85 1085.9
20200803203908 46 328 4.0 12.0 0.00 0.00 0.00 84 1122.5
20200803203409 46 341 5.0 12.0 0.00 0.00 0.00 84 1119.8
20200803202910 46 339 5.0 12.0 0.00 0.00 0.00 83 1103.1
20200803202407 47 323 4.0 12.0 0.00 0.00 0.00 82 1077.1
20200803201907 47 319 5.0 12.0 0.00 0.00 0.00 82 1073.6
20200803201427 46 298 6.0 12.0 0.00 0.00 0.00 83 1052.3
20200803200907 46 299 5.0 12.0 0.00 0.00 0.00 82 1052.4
20200803200407 46 310 5.0 12.0 0.00 0.00 0.00 83 1057.9
20200803195907 47 295 6.0 12.0 0.00 0.00 0.00 82 1038.9
20200803195407 47 293 6.0 12.0 0.00 0.00 0.00 83 1036.9
20200803194907 47 302 6.0 12.0 0.00 0.00 0.00 82 1048.1
20200803194407 47 296 6.0 12.0 0.00 0.00 0.00 82 1055.9
20200803193907 47 319 5.0 12.0 0.00 0.00 0.00 83 1088.4